createdAt,value
2023-01-06T00:00:23.895Z,8.98
2023-01-06T00:02:25.401Z,8.98
2023-01-06T00:04:27.627Z,8.98
2023-01-06T00:06:31.147Z,8.99
2023-01-06T00:08:34.634Z,9.01
2023-01-06T00:10:36.804Z,9.00
2023-01-06T00:12:38.510Z,9.00
2023-01-06T00:14:42.560Z,9.00
2023-01-06T00:16:44.037Z,9.02
2023-01-06T00:18:46.172Z,9.03
2023-01-06T00:20:47.637Z,9.02
2023-01-06T00:22:49.088Z,9.05
2023-01-06T00:24:50.545Z,9.05
2023-01-06T00:26:52.000Z,9.03
2023-01-06T00:28:54.844Z,9.04
2023-01-06T00:30:56.409Z,9.04
2023-01-06T00:32:57.882Z,9.05
2023-01-06T00:34:59.388Z,9.06
2023-01-06T00:37:00.905Z,9.06
2023-01-06T00:39:02.589Z,9.08
2023-01-06T00:41:33.187Z,9.08
2023-01-06T00:43:34.635Z,9.08
2023-01-06T00:45:36.083Z,9.09
2023-01-06T00:47:37.532Z,9.11
2023-01-06T00:49:39.004Z,9.11
2023-01-06T00:51:41.102Z,9.12
2023-01-06T00:53:42.557Z,9.12
2023-01-06T00:55:44.055Z,9.13
2023-01-06T00:57:45.489Z,9.15
2023-01-06T00:59:47.073Z,9.17
2023-01-06T01:01:50.950Z,9.18
2023-01-06T01:03:52.491Z,9.18
2023-01-06T01:05:59.546Z,9.21
2023-01-06T01:08:01.188Z,9.21
2023-01-06T01:10:03.255Z,9.21
2023-01-06T01:12:11.983Z,9.22
2023-01-06T01:14:16.280Z,9.22
2023-01-06T01:16:17.741Z,9.23
2023-01-06T01:18:19.201Z,9.25
2023-01-06T01:20:20.657Z,9.26
2023-01-06T01:22:23.720Z,9.26
2023-01-06T01:24:25.345Z,9.28
2023-01-06T01:26:26.829Z,9.29
2023-01-06T01:28:28.271Z,9.30
2023-01-06T01:30:29.705Z,9.30
2023-01-06T01:32:31.171Z,9.30
2023-01-06T01:34:33.235Z,9.32
2023-01-06T01:36:34.731Z,9.33
2023-01-06T01:38:36.475Z,9.33
2023-01-06T01:40:37.906Z,9.34
2023-01-06T01:42:39.407Z,9.35
2023-01-06T01:44:56.135Z,9.37
2023-01-06T01:46:57.978Z,9.36
2023-01-06T01:49:03.965Z,9.38
2023-01-06T01:51:11.581Z,9.38
2023-01-06T01:53:23.936Z,9.39
2023-01-06T01:55:27.921Z,9.39
2023-01-06T01:57:37.903Z,9.40
2023-01-06T01:59:42.123Z,9.40
2023-01-06T02:01:44.620Z,9.41
2023-01-06T02:03:46.260Z,9.42
2023-01-06T02:05:57.560Z,9.42
2023-01-06T02:08:04.030Z,9.42
2023-01-06T02:10:20.595Z,9.44
2023-01-06T02:12:22.075Z,9.43
2023-01-06T02:14:29.177Z,9.46
2023-01-06T02:16:40.416Z,9.45
2023-01-06T02:19:22.603Z,9.49
2023-01-06T02:21:42.270Z,9.49
2023-01-06T02:24:08.073Z,9.49
2023-01-06T02:26:37.172Z,9.50
2023-01-06T02:29:14.546Z,9.51
2023-01-06T02:31:30.308Z,9.53
2023-01-06T02:33:34.591Z,9.54
2023-01-06T02:36:00.322Z,9.55
2023-01-06T02:38:23.660Z,9.55
2023-01-06T02:41:03.352Z,9.56
2023-01-06T02:43:46.802Z,9.57
2023-01-06T02:46:08.225Z,9.58
2023-01-06T02:48:34.203Z,9.62
2023-01-06T02:50:46.260Z,9.63
2023-01-06T02:52:57.866Z,9.64
2023-01-06T02:55:02.859Z,9.64
2023-01-06T02:57:14.173Z,9.66
2023-01-06T02:59:30.806Z,9.66
2023-01-06T03:01:38.561Z,9.68
2023-01-06T03:03:44.755Z,9.70
2023-01-06T03:05:51.988Z,9.72
2023-01-06T03:07:55.175Z,9.73
2023-01-06T03:09:59.654Z,9.74
2023-01-06T03:12:08.211Z,9.75
2023-01-06T03:14:15.392Z,9.78
2023-01-06T03:16:17.179Z,9.77
2023-01-06T03:18:18.880Z,9.77
2023-01-06T03:20:20.969Z,9.77
2023-01-06T03:22:24.040Z,9.77
2023-01-06T03:24:25.817Z,9.77
2023-01-06T03:26:27.584Z,9.77
2023-01-06T03:28:29.070Z,9.76
2023-01-06T03:30:48.162Z,9.76
2023-01-06T03:33:10.917Z,9.76
2023-01-06T03:35:28.179Z,9.75
2023-01-06T03:38:08.028Z,9.77
2023-01-06T03:40:20.054Z,9.75
2023-01-06T03:42:54.663Z,9.75
2023-01-06T03:45:22.183Z,9.74
2023-01-06T03:47:32.663Z,9.79
2023-01-06T03:49:54.595Z,9.78
2023-01-06T03:52:24.782Z,9.77
2023-01-06T03:54:44.364Z,9.77
2023-01-06T03:56:51.162Z,9.78
2023-01-06T03:58:57.416Z,9.77
2023-01-06T04:01:03.151Z,9.78
2023-01-06T04:03:11.547Z,9.77
2023-01-06T04:05:14.911Z,9.77
2023-01-06T04:07:16.369Z,9.77
2023-01-06T04:09:17.886Z,9.79
2023-01-06T04:11:38.016Z,9.82
2023-01-06T04:13:39.497Z,9.82
2023-01-06T04:15:41.053Z,9.80
2023-01-06T04:17:43.734Z,9.82
2023-01-06T04:19:45.265Z,9.83
2023-01-06T04:21:46.726Z,9.85
2023-01-06T04:23:48.195Z,9.87
2023-01-06T04:25:49.680Z,9.88
2023-01-06T04:27:52.003Z,9.89
2023-01-06T04:29:53.627Z,9.89
2023-01-06T04:31:55.247Z,9.89
2023-01-06T04:33:56.805Z,9.88
2023-01-06T04:35:58.267Z,9.89
2023-01-06T04:38:03.265Z,9.89
2023-01-06T04:40:06.480Z,9.90
2023-01-06T04:42:07.994Z,9.89
2023-01-06T04:44:09.488Z,9.89
2023-01-06T04:46:11.052Z,9.89
2023-01-06T04:48:13.903Z,9.88
2023-01-06T04:50:15.491Z,9.87
2023-01-06T04:52:17.039Z,9.86
2023-01-06T04:54:18.674Z,9.84
2023-01-06T04:56:20.145Z,9.85
2023-01-06T04:58:21.625Z,9.82
2023-01-06T05:00:23.384Z,9.83
2023-01-06T05:02:24.854Z,9.83
2023-01-06T05:04:28.364Z,9.83
2023-01-06T05:06:31.582Z,9.82
2023-01-06T05:08:33.149Z,9.83
2023-01-06T05:10:34.609Z,9.85
2023-01-06T05:12:36.693Z,9.84
2023-01-06T05:14:38.161Z,9.86
2023-01-06T05:16:39.919Z,9.85
2023-01-06T05:18:41.447Z,9.84
2023-01-06T05:20:42.948Z,9.84
2023-01-06T05:22:44.455Z,9.83
2023-01-06T05:24:46.063Z,9.84
2023-01-06T05:26:47.558Z,9.83
2023-01-06T05:28:49.348Z,9.85
2023-01-06T05:30:50.955Z,9.86
2023-01-06T05:32:52.417Z,9.89
2023-01-06T05:34:53.897Z,9.88
2023-01-06T05:36:56.523Z,9.86
2023-01-06T05:38:58.022Z,9.86
2023-01-06T05:40:59.500Z,9.84
2023-01-06T05:43:01.051Z,9.87
2023-01-06T05:45:02.565Z,9.85
2023-01-06T05:47:04.082Z,9.84
2023-01-06T05:49:05.584Z,9.86
2023-01-06T05:51:09.951Z,9.84
2023-01-06T05:53:11.425Z,9.86
2023-01-06T05:55:12.910Z,9.85
2023-01-06T05:57:14.419Z,9.84
2023-01-06T05:59:16.020Z,9.85
2023-01-06T06:01:26.250Z,9.87
2023-01-06T06:03:27.886Z,9.87
2023-01-06T06:05:29.448Z,9.87
2023-01-06T06:07:30.920Z,9.87
2023-01-06T06:09:32.489Z,9.86
2023-01-06T06:11:34.014Z,9.85
2023-01-06T06:13:36.116Z,9.87
2023-01-06T06:15:37.664Z,9.88
2023-01-06T06:17:39.120Z,9.87
2023-01-06T06:19:40.552Z,9.88
2023-01-06T06:21:42.015Z,9.90
2023-01-06T06:23:43.849Z,9.89
2023-01-06T06:25:45.317Z,9.91
2023-01-06T06:27:46.804Z,9.91
2023-01-06T06:29:48.267Z,9.91
2023-01-06T06:31:49.741Z,9.94
2023-01-06T06:33:53.119Z,9.93
2023-01-06T06:35:58.405Z,9.96
2023-01-06T06:37:59.885Z,9.95
2023-01-06T06:40:01.442Z,9.96
2023-01-06T06:42:03.233Z,9.95
2023-01-06T06:44:05.259Z,9.94
2023-01-06T06:46:07.641Z,9.96
2023-01-06T06:48:09.177Z,9.99
2023-01-06T06:50:12.243Z,10.01
2023-01-06T06:52:13.703Z,10.00
2023-01-06T06:54:15.174Z,10.00
2023-01-06T06:56:18.356Z,9.99
2023-01-06T06:58:19.925Z,10.00
2023-01-06T07:00:21.377Z,10.00
2023-01-06T07:02:22.922Z,10.03
2023-01-06T07:04:24.492Z,10.05
2023-01-06T07:06:28.815Z,10.07
2023-01-06T07:08:33.037Z,10.06
2023-01-06T07:10:34.633Z,10.06
2023-01-06T07:12:36.109Z,10.07
2023-01-06T07:14:37.653Z,10.08
2023-01-06T07:16:39.144Z,10.07
2023-01-06T07:18:40.680Z,10.07
2023-01-06T07:20:48.569Z,10.06
2023-01-06T07:22:50.046Z,10.07
2023-01-06T07:24:51.543Z,10.05
2023-01-06T07:26:53.015Z,10.07
2023-01-06T07:28:54.478Z,10.05
2023-01-06T07:30:56.152Z,10.08
2023-01-06T07:32:57.645Z,10.11
2023-01-06T07:34:59.133Z,10.09
2023-01-06T07:37:00.768Z,10.10
2023-01-06T07:39:02.252Z,10.10
2023-01-06T07:41:03.847Z,10.10
2023-01-06T07:43:09.306Z,10.09
2023-01-06T07:45:11.474Z,10.09
2023-01-06T07:47:13.898Z,10.11
2023-01-06T07:49:15.626Z,10.08
2023-01-06T07:51:17.142Z,10.12
2023-01-06T07:53:18.811Z,10.15
2023-01-06T07:55:20.295Z,10.12
2023-01-06T07:57:21.838Z,10.08
2023-01-06T07:59:23.389Z,10.05
2023-01-06T08:01:24.990Z,10.04
2023-01-06T08:03:26.577Z,10.03
2023-01-06T08:05:28.304Z,10.01
2023-01-06T08:07:29.894Z,10.03
2023-01-06T08:09:31.406Z,10.02
2023-01-06T08:11:32.873Z,10.02
2023-01-06T08:13:34.567Z,10.03
2023-01-06T08:15:37.709Z,10.02
2023-01-06T08:17:39.314Z,10.00
2023-01-06T08:19:40.813Z,9.99
2023-01-06T08:21:42.272Z,9.97
2023-01-06T08:23:43.797Z,9.97
2023-01-06T08:25:45.256Z,9.95
2023-01-06T08:27:46.740Z,9.91
2023-01-06T08:29:50.177Z,9.89
2023-01-06T08:31:56.902Z,9.89
2023-01-06T08:34:07.344Z,9.86
2023-01-06T08:36:11.601Z,9.83
2023-01-06T08:38:13.444Z,9.83
2023-01-06T08:40:14.912Z,9.82
2023-01-06T08:42:16.466Z,9.80
2023-01-06T08:44:18.752Z,9.79
2023-01-06T08:46:20.746Z,9.74
2023-01-06T08:48:22.249Z,9.73
2023-01-06T08:50:25.851Z,9.72
2023-01-06T08:52:27.998Z,9.69
2023-01-06T08:54:30.049Z,9.67
2023-01-06T08:56:32.434Z,9.63
2023-01-06T08:58:33.915Z,9.61
2023-01-06T09:00:36.888Z,9.61
2023-01-06T09:02:38.388Z,9.61
2023-01-06T09:04:39.999Z,9.62
2023-01-06T09:06:43.292Z,9.62
2023-01-06T09:08:45.245Z,9.62
2023-01-06T09:10:46.767Z,9.63
2023-01-06T09:12:48.363Z,9.63
2023-01-06T09:14:49.872Z,9.63
2023-01-06T09:16:51.686Z,9.61
2023-01-06T09:18:53.404Z,9.64
2023-01-06T09:20:54.856Z,9.69
2023-01-06T09:22:56.326Z,9.69
2023-01-06T09:24:57.788Z,9.71
2023-01-06T09:26:59.229Z,9.74
2023-01-06T09:29:00.704Z,9.77
2023-01-06T09:31:02.332Z,9.79
2023-01-06T09:33:03.881Z,9.79
2023-01-06T09:35:05.809Z,9.80
2023-01-06T09:37:07.684Z,9.81
2023-01-06T09:39:09.188Z,9.79
2023-01-06T09:41:19.404Z,9.78
2023-01-06T09:43:38.460Z,9.77
2023-01-06T09:45:53.370Z,9.80
2023-01-06T09:48:00.813Z,9.83
2023-01-06T09:50:08.954Z,9.82
2023-01-06T09:52:31.369Z,9.84
2023-01-06T09:54:42.137Z,9.84
2023-01-06T09:56:47.117Z,9.84
2023-01-06T09:58:55.697Z,9.86
2023-01-06T10:01:02.887Z,9.89
2023-01-06T10:03:05.857Z,9.90
2023-01-06T10:05:22.452Z,9.94
2023-01-06T10:07:34.170Z,9.97
2023-01-06T10:09:44.373Z,10.02
2023-01-06T10:11:57.184Z,10.05
2023-01-06T10:14:14.216Z,10.06
2023-01-06T10:16:24.485Z,10.09
2023-01-06T10:18:51.987Z,10.12
2023-01-06T10:20:59.533Z,10.13
2023-01-06T10:23:25.937Z,10.11
2023-01-06T10:25:34.834Z,10.10
2023-01-06T10:27:40.644Z,10.09
2023-01-06T10:29:43.384Z,10.07
2023-01-06T10:31:48.525Z,10.05
2023-01-06T10:33:55.103Z,10.03
2023-01-06T10:35:58.416Z,10.03
2023-01-06T10:38:04.698Z,10.04
2023-01-06T10:40:27.058Z,10.04
2023-01-06T10:42:57.280Z,10.06
2023-01-06T10:44:58.793Z,10.08
2023-01-06T10:47:00.348Z,10.14
2023-01-06T10:49:08.410Z,10.21
2023-01-06T10:51:31.371Z,10.27
2023-01-06T10:53:32.954Z,10.33
2023-01-06T10:55:52.942Z,10.41
2023-01-06T10:57:58.619Z,10.50
2023-01-06T11:00:12.665Z,10.58
2023-01-06T11:02:23.808Z,10.73
2023-01-06T11:04:27.936Z,10.87
2023-01-06T11:06:31.510Z,11.04
2023-01-06T11:08:33.885Z,11.34
2023-01-06T11:10:39.587Z,11.83
2023-01-06T11:12:45.924Z,12.44
2023-01-06T11:15:07.800Z,12.95
2023-01-06T11:17:14.985Z,13.25
2023-01-06T11:19:33.201Z,13.51
2023-01-06T11:21:42.237Z,13.66
2023-01-06T11:23:46.734Z,13.32
2023-01-06T11:26:10.395Z,13.23
2023-01-06T11:28:13.673Z,13.10
2023-01-06T11:30:31.200Z,13.39
2023-01-06T11:32:32.750Z,13.81
2023-01-06T11:34:34.761Z,13.97
2023-01-06T11:36:46.563Z,14.17
2023-01-06T11:38:52.414Z,13.91
2023-01-06T11:40:54.415Z,13.70
2023-01-06T11:43:03.392Z,13.64
2023-01-06T11:45:05.758Z,13.67
2023-01-06T11:47:20.372Z,13.15
2023-01-06T11:49:29.058Z,12.78
2023-01-06T11:51:32.193Z,12.32
2023-01-06T11:53:34.471Z,12.21
2023-01-06T11:55:35.974Z,12.08
2023-01-06T11:57:50.737Z,11.89
2023-01-06T12:00:13.716Z,11.83
2023-01-06T12:02:30.502Z,11.73
2023-01-06T12:04:50.240Z,11.69
2023-01-06T12:06:59.913Z,11.56
2023-01-06T12:09:13.146Z,11.60
2023-01-06T12:11:21.099Z,11.63
2023-01-06T12:13:23.748Z,11.53
2023-01-06T12:15:29.159Z,11.46
2023-01-06T12:17:57.862Z,11.45
2023-01-06T12:20:05.951Z,11.39
2023-01-06T12:22:22.426Z,11.37
2023-01-06T12:24:25.519Z,11.34
2023-01-06T12:26:28.235Z,11.31
2023-01-06T12:28:37.579Z,11.27
2023-01-06T12:31:00.404Z,11.17
2023-01-06T12:33:17.574Z,11.08
2023-01-06T12:35:23.994Z,11.01
2023-01-06T12:37:34.372Z,11.00
2023-01-06T12:39:47.156Z,10.99
2023-01-06T12:42:10.603Z,10.93
2023-01-06T12:44:30.478Z,10.89
2023-01-06T12:46:42.603Z,10.85
2023-01-06T12:48:52.872Z,10.74
2023-01-06T12:51:04.065Z,10.70
2023-01-06T12:53:20.518Z,10.66
2023-01-06T12:55:51.732Z,10.68
2023-01-06T12:58:05.292Z,10.67
2023-01-06T13:00:22.642Z,10.83
2023-01-06T13:02:29.799Z,10.99
2023-01-06T13:04:37.263Z,10.99
2023-01-06T13:07:06.137Z,10.89
2023-01-06T13:09:23.354Z,10.79
2023-01-06T13:11:39.990Z,10.71
2023-01-06T13:14:00.138Z,10.63
2023-01-06T13:16:09.022Z,10.57
2023-01-06T13:18:19.195Z,10.53
2023-01-06T13:20:26.116Z,10.49
2023-01-06T13:23:07.180Z,10.44
2023-01-06T13:25:43.553Z,10.38
2023-01-06T13:27:50.881Z,10.31
2023-01-06T13:30:00.800Z,10.27
2023-01-06T13:32:08.208Z,10.25
2023-01-06T13:34:26.700Z,10.22
2023-01-06T13:37:05.901Z,10.18
2023-01-06T13:39:09.712Z,10.12
2023-01-06T13:41:16.558Z,10.10
2023-01-06T13:43:23.581Z,10.10
2023-01-06T13:45:35.914Z,10.10
2023-01-06T13:47:38.160Z,10.06
2023-01-06T13:49:41.544Z,10.03
2023-01-06T13:51:44.357Z,10.00
2023-01-06T13:53:47.004Z,10.02
2023-01-06T13:56:08.935Z,9.98
2023-01-06T13:58:34.360Z,10.02
2023-01-06T14:00:35.837Z,10.03
2023-01-06T14:02:39.902Z,10.07
2023-01-06T14:04:43.977Z,10.07
2023-01-06T14:06:46.655Z,10.07
2023-01-06T14:08:51.436Z,10.03
2023-01-06T14:11:02.313Z,10.02
2023-01-06T14:13:35.693Z,10.00
2023-01-06T14:18:31.025Z,9.95
2023-01-06T14:20:38.240Z,9.93
2023-01-06T14:22:40.488Z,9.88
2023-01-06T14:25:01.411Z,9.85
2023-01-06T14:27:08.163Z,9.80
2023-01-06T14:29:40.814Z,9.77
2023-01-06T14:31:42.475Z,9.72
2023-01-06T14:33:44.938Z,9.66
2023-01-06T14:35:47.724Z,9.64
2023-01-06T14:37:53.324Z,9.64
2023-01-06T14:39:56.572Z,9.62
2023-01-06T14:42:05.067Z,9.60
2023-01-06T14:44:16.973Z,9.57
2023-01-06T14:46:26.763Z,9.53
2023-01-06T14:48:32.407Z,9.50
2023-01-06T14:50:47.121Z,9.48
2023-01-06T14:52:57.924Z,9.43
2023-01-06T14:55:00.474Z,9.41
2023-01-06T14:57:03.592Z,9.36
2023-01-06T14:59:14.108Z,9.33
2023-01-06T15:01:25.182Z,9.30
2023-01-06T15:03:28.493Z,9.29
2023-01-06T15:05:36.072Z,9.27
2023-01-06T15:07:37.519Z,9.24
2023-01-06T15:09:38.994Z,9.24
2023-01-06T15:11:42.710Z,9.24
2023-01-06T15:13:44.990Z,9.23
2023-01-06T15:15:54.122Z,9.24
2023-01-06T15:17:57.529Z,9.24
2023-01-06T15:19:59.233Z,9.22
2023-01-06T15:22:05.432Z,9.16
2023-01-06T15:24:20.376Z,9.11
2023-01-06T15:26:27.692Z,9.07
2023-01-06T15:28:31.511Z,9.02
2023-01-06T15:30:36.513Z,9.01
2023-01-06T15:32:41.032Z,8.99
2023-01-06T15:34:46.532Z,8.98
2023-01-06T15:36:50.885Z,8.96
2023-01-06T15:38:54.421Z,8.95
2023-01-06T15:40:56.015Z,8.95
2023-01-06T15:42:57.844Z,8.96
2023-01-06T15:45:01.444Z,8.94
2023-01-06T15:47:06.679Z,8.92
2023-01-06T15:49:21.435Z,8.87
2023-01-06T15:51:22.957Z,8.84
2023-01-06T15:53:28.254Z,8.79
2023-01-06T15:55:32.050Z,8.74
2023-01-06T15:57:38.985Z,8.72
2023-01-06T15:59:42.191Z,8.70
2023-01-06T16:01:50.265Z,8.67
2023-01-06T16:03:54.943Z,8.65
2023-01-06T16:06:14.764Z,8.61
2023-01-06T16:08:25.982Z,8.56
2023-01-06T16:10:38.493Z,8.57
2023-01-06T16:12:40.059Z,8.55
2023-01-06T16:14:46.059Z,8.56
2023-01-06T16:16:47.567Z,8.54
2023-01-06T16:18:51.269Z,8.52
2023-01-06T16:20:53.005Z,8.45
2023-01-06T16:22:56.121Z,8.46
2023-01-06T16:25:00.619Z,8.48
2023-01-06T16:27:05.964Z,8.49
2023-01-06T16:29:29.179Z,8.45
2023-01-06T16:31:36.396Z,8.45
2023-01-06T16:33:45.793Z,8.42
2023-01-06T16:35:52.137Z,8.41
2023-01-06T16:37:54.075Z,8.39
2023-01-06T16:39:59.215Z,8.34
2023-01-06T16:42:00.639Z,8.34
2023-01-06T16:44:02.066Z,8.31
2023-01-06T16:46:13.762Z,8.29
2023-01-06T16:48:16.787Z,8.27
2023-01-06T16:50:22.649Z,8.24
2023-01-06T16:52:25.570Z,8.22
2023-01-06T16:54:27.206Z,8.22
2023-01-06T16:56:29.247Z,8.22
2023-01-06T16:58:32.899Z,8.20
2023-01-06T17:00:39.734Z,8.19
2023-01-06T17:02:42.259Z,8.18
2023-01-06T17:04:45.441Z,8.19
2023-01-06T17:06:47.002Z,8.16
2023-01-06T17:08:49.359Z,8.13
2023-01-06T17:10:51.910Z,8.14
2023-01-06T17:13:20.041Z,8.14
2023-01-06T17:15:21.675Z,8.11
2023-01-06T17:17:23.274Z,8.10
2023-01-06T17:19:28.694Z,8.11
2023-01-06T17:21:37.254Z,8.07
2023-01-06T17:24:02.477Z,8.07
2023-01-06T17:26:11.993Z,8.07
2023-01-06T17:28:22.058Z,8.06
2023-01-06T17:30:23.530Z,8.04
2023-01-06T17:32:32.593Z,8.03
2023-01-06T17:34:36.599Z,8.04
2023-01-06T17:36:40.233Z,8.03
2023-01-06T17:38:44.778Z,8.01
2023-01-06T17:40:46.364Z,8.02
2023-01-06T17:43:00.844Z,8.03
2023-01-06T17:45:16.513Z,8.02
2023-01-06T17:47:17.903Z,7.97
2023-01-06T17:49:19.299Z,7.96
2023-01-06T17:51:20.903Z,7.98
2023-01-06T17:53:46.826Z,7.99
2023-01-06T17:55:49.854Z,8.01
2023-01-06T17:57:55.303Z,8.01
2023-01-06T17:59:57.566Z,8.00
2023-01-06T18:02:01.131Z,8.01
2023-01-06T18:04:06.510Z,8.03
2023-01-06T18:06:20.212Z,8.05
2023-01-06T18:08:21.988Z,8.02
2023-01-06T18:10:23.479Z,8.05
2023-01-06T18:12:25.178Z,8.08
2023-01-06T18:14:33.591Z,8.07
2023-01-06T18:16:35.475Z,8.05
2023-01-06T18:18:42.013Z,8.05
2023-01-06T18:20:58.734Z,8.05
2023-01-06T18:23:00.434Z,8.04
2023-01-06T18:25:02.351Z,8.05
2023-01-06T18:27:22.123Z,8.04
2023-01-06T18:29:34.208Z,8.05
2023-01-06T18:31:39.317Z,8.04
2023-01-06T18:33:40.879Z,8.03
2023-01-06T18:35:42.792Z,8.03
2023-01-06T18:37:44.915Z,8.02
2023-01-06T18:39:50.015Z,7.99
2023-01-06T18:42:17.175Z,7.97
2023-01-06T18:44:20.456Z,7.95
2023-01-06T18:46:22.129Z,7.94
2023-01-06T18:48:27.184Z,7.92
2023-01-06T18:50:42.892Z,7.90
2023-01-06T18:52:46.188Z,7.88
2023-01-06T18:54:47.743Z,7.84
2023-01-06T18:56:51.257Z,7.82
2023-01-06T18:58:57.179Z,7.77
2023-01-06T19:01:11.228Z,7.74
2023-01-06T19:03:57.395Z,7.70
2023-01-06T19:06:10.764Z,7.65
2023-01-06T19:08:22.861Z,7.65
2023-01-06T19:10:27.898Z,7.64
2023-01-06T19:12:39.853Z,7.62
2023-01-06T19:14:44.422Z,7.58
2023-01-06T19:16:54.794Z,7.55
2023-01-06T19:19:08.520Z,7.54
2023-01-06T19:21:14.682Z,7.52
2023-01-06T19:23:22.915Z,7.49
2023-01-06T19:25:43.062Z,7.48
2023-01-06T19:27:48.241Z,7.45
2023-01-06T19:29:51.724Z,7.42
2023-01-06T19:31:56.716Z,7.41
2023-01-06T19:34:03.786Z,7.38
2023-01-06T19:36:40.488Z,7.36
2023-01-06T19:38:44.062Z,7.29
2023-01-06T19:40:45.622Z,7.24
2023-01-06T19:42:47.102Z,7.18
2023-01-06T19:44:50.343Z,7.11
2023-01-06T19:46:52.169Z,7.08
2023-01-06T19:48:55.662Z,7.07
2023-01-06T19:51:15.769Z,7.03
2023-01-06T19:53:43.343Z,7.02
2023-01-06T19:55:44.838Z,6.99
2023-01-06T19:57:51.495Z,7.01
2023-01-06T19:59:54.227Z,6.99
2023-01-06T20:02:07.719Z,6.99
2023-01-06T20:04:23.900Z,6.97
2023-01-06T20:06:25.335Z,6.91
2023-01-06T20:08:27.005Z,6.89
2023-01-06T20:10:28.494Z,6.86
2023-01-06T20:12:30.039Z,6.79
2023-01-06T20:14:31.517Z,6.81
2023-01-06T20:16:33.340Z,6.80
2023-01-06T20:18:34.980Z,6.80
2023-01-06T20:20:36.603Z,6.77
2023-01-06T20:22:38.079Z,6.73
2023-01-06T20:24:39.930Z,6.73
2023-01-06T20:26:41.774Z,6.72
2023-01-06T20:28:43.599Z,6.74
2023-01-06T20:30:46.428Z,6.73
2023-01-06T20:32:48.015Z,6.75
2023-01-06T20:34:49.527Z,6.80
2023-01-06T20:36:51.098Z,6.84
2023-01-06T20:38:52.744Z,6.84
2023-01-06T20:40:54.341Z,6.83
2023-01-06T20:42:56.021Z,6.80
2023-01-06T20:44:57.724Z,6.76
2023-01-06T20:46:59.183Z,6.74
2023-01-06T20:49:00.770Z,6.68
2023-01-06T20:51:02.636Z,6.61
2023-01-06T20:53:04.223Z,6.57
2023-01-06T20:55:06.148Z,6.51
2023-01-06T20:57:07.763Z,6.44
2023-01-06T20:59:09.327Z,6.39
2023-01-06T21:01:10.976Z,6.32
2023-01-06T21:03:12.694Z,6.27
2023-01-06T21:05:14.275Z,6.20
2023-01-06T21:07:15.746Z,6.16
2023-01-06T21:09:17.262Z,6.11
2023-01-06T21:11:18.740Z,6.07
2023-01-06T21:13:23.966Z,6.02
2023-01-06T21:15:28.284Z,5.98
2023-01-06T21:17:29.819Z,5.95
2023-01-06T21:19:31.336Z,5.91
2023-01-06T21:21:32.817Z,5.87
2023-01-06T21:23:34.273Z,5.84
2023-01-06T21:25:36.192Z,5.83
2023-01-06T21:27:37.796Z,5.79
2023-01-06T21:29:39.423Z,5.77
2023-01-06T21:31:41.075Z,5.75
2023-01-06T21:33:42.549Z,5.72
2023-01-06T21:35:44.044Z,5.74
2023-01-06T21:37:45.663Z,5.73
2023-01-06T21:39:48.158Z,5.73
2023-01-06T21:42:08.192Z,5.72
2023-01-06T21:44:09.679Z,5.71
2023-01-06T21:46:11.339Z,5.68
2023-01-06T21:48:14.015Z,5.67
2023-01-06T21:50:15.649Z,5.67
2023-01-06T21:52:17.639Z,5.68
2023-01-06T21:54:19.170Z,5.67
2023-01-06T21:56:20.691Z,5.70
2023-01-06T21:58:23.200Z,5.69
2023-01-06T22:00:24.675Z,5.66
2023-01-06T22:02:26.269Z,5.65
2023-01-06T22:04:27.812Z,5.64
2023-01-06T22:06:29.948Z,5.63
2023-01-06T22:08:32.739Z,5.60
2023-01-06T22:10:36.954Z,5.57
2023-01-06T22:12:41.324Z,5.55
2023-01-06T22:14:43.636Z,5.51
2023-01-06T22:16:45.704Z,5.48
2023-01-06T22:18:47.306Z,5.47
2023-01-06T22:20:48.954Z,5.44
2023-01-06T22:22:50.484Z,5.41
2023-01-06T22:24:53.294Z,5.39
2023-01-06T22:26:54.905Z,5.41
2023-01-06T22:28:56.351Z,5.41
2023-01-06T22:30:58.074Z,5.43
2023-01-06T22:32:59.573Z,5.43
2023-01-06T22:35:01.007Z,5.42
2023-01-06T22:37:02.511Z,5.45
2023-01-06T22:39:04.603Z,5.47
2023-01-06T22:41:07.090Z,5.49
2023-01-06T22:43:08.605Z,5.52
2023-01-06T22:45:11.372Z,5.59
2023-01-06T22:47:12.894Z,5.64
2023-01-06T22:49:15.039Z,5.72
2023-01-06T22:51:16.771Z,5.81
2023-01-06T22:53:18.219Z,5.83
2023-01-06T22:55:19.758Z,5.81
2023-01-06T22:57:21.305Z,5.80
2023-01-06T22:59:22.797Z,5.79
2023-01-06T23:01:24.306Z,5.86
2023-01-06T23:03:26.212Z,5.96
2023-01-06T23:05:28.895Z,6.02
2023-01-06T23:07:30.348Z,6.04
2023-01-06T23:09:31.799Z,6.03
2023-01-06T23:11:35.329Z,6.06
2023-01-06T23:13:38.119Z,6.12
2023-01-06T23:15:39.621Z,6.20
2023-01-06T23:17:41.142Z,6.25
2023-01-06T23:19:42.607Z,6.26
2023-01-06T23:21:44.653Z,6.30
2023-01-06T23:23:47.469Z,6.39
2023-01-06T23:25:48.932Z,6.49
2023-01-06T23:27:50.408Z,6.56
2023-01-06T23:29:51.891Z,6.63
2023-01-06T23:31:53.349Z,6.68
2023-01-06T23:33:57.081Z,6.67
2023-01-06T23:36:02.924Z,6.70
2023-01-06T23:38:04.392Z,6.73
2023-01-06T23:40:06.338Z,6.76
2023-01-06T23:42:07.797Z,6.77
2023-01-06T23:44:14.733Z,6.80
2023-01-06T23:46:19.032Z,6.83
2023-01-06T23:48:20.541Z,6.86
2023-01-06T23:50:22.001Z,6.89
2023-01-06T23:52:23.494Z,6.92
2023-01-06T23:54:24.979Z,6.97
2023-01-06T23:56:28.357Z,7.00
2023-01-06T23:58:32.384Z,7.01
